TAF and METAR

Could not understand the following METAR

YPKU 232300Z AUTO 16006KT 9999 // NCD 20/M00 Q1018

TAF for Kununurra Airport

TAF YPKU 231922Z 2320/2408 15008KT CAVOK
Report created 23. jun 21:22

between 23. jun 22:00 - 24. jun 10:00

wind 8 knots from SSE (150°) Clear sky